Metar Cercanos

 

LEPA - Palma De Mallorc, Spain
Distance from station: ONO 38km
Actualización: 15/08/2018 05:30
Parcialmente nuboso
Parcialmente nuboso
 Viento del E
Viento: E 4 km/h
Temperatura: 21°C
Rocío: 20°C
Humedad: 94%
Barómetro: 1017 hPa
Clouds: Parcialmente nuboso
Visibility: 10 km
Cloud details: Few Clouds 762 m
Parcialmente nuboso 1372 m
2018/08/15 03:30 LEPA 150330Z 08002KT 9999 FEW025 SCT045 21/20 Q1017 NOSIG
LEMH - Mahon/Menorca Is, Spain
Distance from station: ENE 105km
Actualización: 15/08/2018 05:30
Few Clouds
Few Clouds
 Viento del N
Viento: N 20 km/h
Temperatura: 24°C
Rocío: 16°C
Humedad: 61%
Barómetro: 1017 hPa
Clouds: Few Clouds
Visibility: 10 km
Cloud details: Few Clouds 1280 m
2018/08/15 03:30 LEMH 150330Z AUTO 36011KT 330V030 9999 FEW042 24/16 Q1017
 
LEIB - Ibiza/Es Codola, Spain
Distance from station: OSO 165km
Actualización: 15/08/2018 05:30
Few Clouds
Few Clouds
 Viento del E
Viento: E 13 km/h
Temperatura: 26°C
Rocío: 22°C
Humedad: 79%
Barómetro: 1017 hPa
Clouds: Few Clouds
Visibility: 10 km
Cloud details: Few Clouds 610 m
2018/08/15 03:30 LEIB 150330Z 10007KT 050V140 9999 FEW020 26/22 Q1017 NOSIG
LEBL - Barcelona Airpor, Spain
Distance from station: NNO 225km
Actualización: 15/08/2018 05:30
Muy nuboso
Muy nuboso
 Viento del NO
Viento: NO 7 km/h
Temperatura: 24°C
Rocío: 20°C
Humedad: 78%
Barómetro: 1017 hPa
Clouds: Muy nuboso
Visibility: 10 km
Cloud details: Muy nuboso 1219 m
2018/08/15 03:30 LEBL 150330Z 31004KT 9999 BKN040 24/20 Q1017 NOSIG
 
LEVC - Valencia (civ/Mi, Spain
Distance from station: NO 188km
Actualización: 15/08/2018 05:30
Muy nuboso
Muy nuboso
 Viento del ONO
Viento: ONO 6 km/h
Temperatura: 25°C
Rocío: 21°C
Humedad: 79%
Barómetro: 1017 hPa
Clouds: Muy nuboso
Visibility: 10 km
Cloud details: Few Clouds 518 m
Muy nuboso 1829 m
2018/08/15 03:30 LEVC 150330Z 30003KT 240V340 9999 FEW017 BKN060 25/21 Q1017 NOSIG
LEGE - Gerona/Costa Bra, Spain
Distance from station: N 276km
Actualización: 15/08/2018 05:30
Parcialmente nuboso
Parcialmente nuboso
 Viento del O
Viento: O 6 km/h
Temperatura: 19°C
Rocío: 18°C
Humedad: 94%
Barómetro: 1018 hPa
Clouds: Parcialmente nuboso
Visibility: 10 km
Cloud details: Parcialmente nuboso 1524 m
2018/08/15 03:30 LEGE 150330Z 28003KT 9999 SCT050 19/18 Q1018
 
LEAL - Alicante/El Alte, Spain
Distance from station: OSO 344km
Actualización: 15/08/2018 05:30
Muy nuboso
Muy nuboso
 Viento del varies
Viento: varies 4 km/h
Temperatura: 26°C
Rocío: 23°C
Humedad: 84%
Barómetro: 1016 hPa
Clouds: Muy nuboso
Visibility: 10 km
Cloud details: Few Clouds 610 m
Muy nuboso 914 m
2018/08/15 03:30 LEAL 150330Z VRB02KT 9999 FEW020 BKN030 26/23 Q1016 NOSIG
LEAM - Almeria Airport, Spain
Distance from station: SSO 56km
Actualización: 15/08/2018 05:30
Despejado
Despejado
 Viento del N
Viento: N 6 km/h
Temperatura: 26°C
Rocío: 21°C
Humedad: 74%
Barómetro: 1015 hPa
Resumen: Despejado
Visibility: greater than 10 km
2018/08/15 03:30 LEAM 150330Z 35003KT 330V030 CAVOK 26/21 Q1015
 
LEZG - Zaragoza (mil/Ci, Spain
Distance from station: NO 431km
Actualización: 15/08/2018 05:30
Despejado
Despejado
 Viento del ONO
Viento: ONO 17 km/h
Temperatura: 18°C
Rocío: 13°C
Humedad: 73%
Barómetro: 1020 hPa
Resumen: Despejado
Visibility: greater than 10 km
2018/08/15 03:30 LEZG 150330Z 29009KT CAVOK 18/13 Q1020
LEMD - Madrid/Barajas, Spain
Distance from station: ONO 234km
Actualización: 15/08/2018 05:30
Despejado
Despejado
 Viento del N
Viento: N 7 km/h
Temperatura: 20°C
Rocío: 10°C
Humedad: 53%
Barómetro: 1019 hPa
Resumen: Despejado
Visibility: greater than 10 km
2018/08/15 03:30 LEMD 150330Z 01004KT CAVOK 20/10 Q1019 NOSIG
 
LEGR - Granada Airport, Spain
Distance from station: OSO 62km
Actualización: 15/08/2018 05:30
Despejado
Despejado
 Viento del calm
Viento: Calma
Temperatura: 19°C
Rocío: 11°C
Humedad: 60%
Barómetro: 1018 hPa
Clouds: Despejado
Visibility: 10 km
2018/08/15 03:30 LEGR 150330Z AUTO 00000KT 9999 NCD 19/11 Q1018
LEMG - Malaga (civ/Mil), Spain
Distance from station: OSO 227km
Actualización: 15/08/2018 05:30
Muy nuboso
Muy nuboso
 Viento del E
Viento: E 11 km/h
Temperatura: 25°C
Rocío: 22°C
Humedad: 83%
Barómetro: 1016 hPa
Clouds: Muy nuboso
Visibility: 8 km
Cloud details: Muy nuboso 274 m
2018/08/15 03:30 LEMG 150330Z 09006KT 8000 BKN009 25/22 Q1016 TEMPO SCT009
 
LEZL - Sevilla (civ/Mil, Spain
Distance from station: S 318km
Actualización: 15/08/2018 05:30
Despejado
Despejado
 Viento del varies
Viento: varies 4 km/h
Temperatura: 18°C
Rocío: 16°C
Humedad: 88%
Barómetro: 1016 hPa
Resumen: Despejado
Visibility: greater than 10 km
2018/08/15 03:30 LEZL 150330Z VRB02KT CAVOK 18/16 Q1016 NOSIG
LEVT - Vitoria, Spain
Distance from station: NO 226km
Actualización: 15/08/2018 05:30
Muy nuboso
Muy nuboso
 Viento del NNE
Viento: NNE 6 km/h
Temperatura: 16°C
Rocío: 14°C
Humedad: 88%
Barómetro: 1022 hPa
Clouds: Muy nuboso
Visibility: 10 km
Cloud details: Few Clouds 610 m
Muy nuboso 975 m
2018/08/15 03:30 LEVT 150330Z 02003KT 9999 FEW020 BKN032 16/14 Q1022
 
LEBB - Bilbao/Sondica, Spain
Distance from station: NNO 235km
Actualización: 15/08/2018 05:30
Parcialmente nuboso
Parcialmente nuboso
 Viento del ESE
Viento: ESE 6 km/h
Temperatura: 18°C
Rocío: 17°C
Humedad: 94%
Barómetro: 1022 hPa
Clouds: Parcialmente nuboso
Visibility: 10 km
Cloud details: Parcialmente nuboso 1372 m
2018/08/15 03:30 LEBB 150330Z 11003KT 080V150 9999 SCT045 18/17 Q1022 NOSIG
LESO - San Sebastian/Fu, Spain
Distance from station: N 231km
Actualización: 15/08/2018 05:30
Few Clouds
Few Clouds
 Viento del calm
Viento: Calma
Temperatura: 18°C
Rocío: 17°C
Humedad: 94%
Barómetro: 1021 hPa
Clouds: Few Clouds
Visibility: 10 km
Cloud details: Few Clouds 1433 m
2018/08/15 03:30 LESO 150330Z AUTO 00000KT 9999 FEW047 18/17 Q1021
 
LEVD - Valladolid(Mil/C, Spain
Distance from station: ONO 239km
Actualización: 14/08/2018 21:30
NOT Current
Despejado
Despejado
 Viento del ENE
Viento: ENE 13 km/h
Temperatura: 21°C
Rocío: 9°C
Humedad: 46%
Barómetro: 1021 hPa
Resumen: Despejado
Visibility: greater than 10 km
2018/08/14 19:30 LEVD 141930Z 07007KT CAVOK 21/09 Q1021
LESA - Salamanca (civ/M, Spain
Distance from station: ONO 349km
Actualización: 15/08/2018 05:30
Despejado
Despejado
 Viento del ENE
Viento: ENE 7 km/h
Temperatura: 12°C
Rocío: 10°C
Humedad: 88%
Barómetro: 1021 hPa
Clouds: Despejado
Visibility: 10 km
2018/08/15 03:30 LESA 150330Z AUTO 06004KT 020V090 9999 NCD 12/10 Q1021
 
LEXJ - Santander/Paraya, Spain
Distance from station: NNO 247km
Actualización: 15/08/2018 05:30
Few Clouds
Few Clouds
 Viento del S
Viento: S 2 km/h
Temperatura: 17°C
Rocío: 17°C
Humedad: 100%
Barómetro: 1021 hPa
Clouds: Few Clouds
Visibility: 10 km
Cloud details: Few Clouds 1219 m
2018/08/15 03:30 LEXJ 150330Z 19001KT 9999 FEW040 17/17 Q1021
LEAS - Asturias/Aviles, Spain
Distance from station: NO 214km
Actualización: 15/08/2018 05:30

 Viento del E
Viento: E 7 km/h
Visibility: 8 km
2018/08/15 03:30 LEAS 150330Z AUTO 10004KT 070V160 8000 2000 NCD 17/15 Q1021
 
LECO - La Coruna/Alvedr, Spain
Distance from station: ONO 222km
Actualización: 15/08/2018 05:30
Despejado
Despejado
 Viento del S
Viento: S 7 km/h
Temperatura: 14°C
Rocío: 14°C
Humedad: 100%
Barómetro: 1018 hPa
Resumen: Despejado
Visibility: greater than 10 km
2018/08/15 03:30 LECO 150330Z 19004KT CAVOK 14/14 Q1018 NOSIG
LEVX - Vigo/Peinador, Spain
Distance from station: O 214km
Actualización: 15/08/2018 05:30
Despejado
Despejado
 Viento del SO
Viento: SO 13 km/h
Temperatura: 20°C
Rocío: 17°C
Humedad: 83%
Barómetro: 1016 hPa
Resumen: Despejado
Visibility: greater than 10 km
2018/08/15 03:30 LEVX 150330Z 22007KT 180V250 CAVOK 20/17 Q1016 NOSIG